sensor_id;sensor_type;location;lat;lon;timestamp;pressure;altitude;pressure_sealevel;temperature;humidity
75852;BME280;64500;52.632;20.656;2023-03-16T00:01:44;100620.77;;;-5.08;76.18
75852;BME280;64500;52.632;20.656;2023-03-16T00:04:10;100620.30;;;-5.10;76.18
75852;BME280;64500;52.632;20.656;2023-03-16T00:06:37;100625.73;;;-5.13;76.16
75852;BME280;64500;52.632;20.656;2023-03-16T00:09:04;100626.89;;;-5.14;76.17
75852;BME280;64500;52.632;20.656;2023-03-16T00:11:31;100628.73;;;-5.15;76.17
75852;BME280;64500;52.632;20.656;2023-03-16T00:13:58;100631.55;;;-5.18;76.07
75852;BME280;64500;52.632;20.656;2023-03-16T00:16:25;100629.66;;;-5.18;76.24
75852;BME280;64500;52.632;20.656;2023-03-16T00:18:52;100632.52;;;-5.15;76.57
75852;BME280;64500;52.632;20.656;2023-03-16T00:21:19;100627.33;;;-5.11;76.94
75852;BME280;64500;52.632;20.656;2023-03-16T00:23:46;100628.73;;;-5.10;76.90
75852;BME280;64500;52.632;20.656;2023-03-16T00:26:13;100626.45;;;-5.12;76.72
75852;BME280;64500;52.632;20.656;2023-03-16T00:28:40;100625.73;;;-5.13;76.75
75852;BME280;64500;52.632;20.656;2023-03-16T00:31:10;100624.94;;;-5.11;76.93
75852;BME280;64500;52.632;20.656;2023-03-16T00:33:43;100627.27;;;-5.09;77.11
75852;BME280;64500;52.632;20.656;2023-03-16T00:36:10;100628.84;;;-5.08;77.13
75852;BME280;64500;52.632;20.656;2023-03-16T00:38:39;100628.42;;;-5.10;77.01
75852;BME280;64500;52.632;20.656;2023-03-16T00:41:12;100632.45;;;-5.13;76.81
75852;BME280;64500;52.632;20.656;2023-03-16T00:43:41;100638.45;;;-5.18;76.62
75852;BME280;64500;52.632;20.656;2023-03-16T00:46:12;100641.52;;;-5.22;76.62
75852;BME280;64500;52.632;20.656;2023-03-16T00:48:41;100642.69;;;-5.23;76.66
75852;BME280;64500;52.632;20.656;2023-03-16T00:51:12;100640.17;;;-5.26;76.62
75852;BME280;64500;52.632;20.656;2023-03-16T00:53:42;100638.90;;;-5.27;76.72
75852;BME280;64500;52.632;20.656;2023-03-16T00:56:10;100636.78;;;-5.24;77.17
75852;BME280;64500;52.632;20.656;2023-03-16T00:58:39;100635.42;;;-5.24;76.92
75852;BME280;64500;52.632;20.656;2023-03-16T01:01:12;100635.98;;;-5.27;76.73
75852;BME280;64500;52.632;20.656;2023-03-16T01:03:40;100634.41;;;-5.27;77.11
75852;BME280;64500;52.632;20.656;2023-03-16T01:06:09;100637.05;;;-5.26;77.06
75852;BME280;64500;52.632;20.656;2023-03-16T01:08:38;100640.25;;;-5.28;76.99
75852;BME280;64500;52.632;20.656;2023-03-16T01:11:08;100640.98;;;-5.30;76.82
75852;BME280;64500;52.632;20.656;2023-03-16T01:13:36;100637.73;;;-5.34;76.63
75852;BME280;64500;52.632;20.656;2023-03-16T01:16:05;100637.41;;;-5.33;77.00
75852;BME280;64500;52.632;20.656;2023-03-16T01:18:33;100634.82;;;-5.34;77.03
75852;BME280;64500;52.632;20.656;2023-03-16T01:21:01;100636.55;;;-5.38;76.84
75852;BME280;64500;52.632;20.656;2023-03-16T01:23:29;100638.20;;;-5.39;76.98
75852;BME280;64500;52.632;20.656;2023-03-16T01:25:57;100638.98;;;-5.37;77.22
75852;BME280;64500;52.632;20.656;2023-03-16T01:28:27;100641.26;;;-5.36;77.15
75852;BME280;64500;52.632;20.656;2023-03-16T01:31:03;100641.32;;;-5.35;77.41
75852;BME280;64500;52.632;20.656;2023-03-16T01:33:31;100642.05;;;-5.34;77.49
75852;BME280;64500;52.632;20.656;2023-03-16T01:36:03;100646.08;;;-5.32;77.58
75852;BME280;64500;52.632;20.656;2023-03-16T01:38:31;100645.21;;;-5.28;77.61
75852;BME280;64500;52.632;20.656;2023-03-16T01:40:59;100648.06;;;-5.26;77.65
75852;BME280;64500;52.632;20.656;2023-03-16T01:43:28;100642.34;;;-5.27;77.47
75852;BME280;64500;52.632;20.656;2023-03-16T01:51:52;100644.38;;;-5.40;77.22
75852;BME280;64500;52.632;20.656;2023-03-16T01:57:14;100648.95;;;-5.45;77.19
75852;BME280;64500;52.632;20.656;2023-03-16T02:02:19;100653.59;;;-5.53;77.26
75852;BME280;64500;52.632;20.656;2023-03-16T02:04:55;100660.27;;;-5.54;77.43
75852;BME280;64500;52.632;20.656;2023-03-16T02:07:25;100658.77;;;-5.53;77.63
75852;BME280;64500;52.632;20.656;2023-03-16T02:09:56;100661.61;;;-5.55;77.59
75852;BME280;64500;52.632;20.656;2023-03-16T02:12:24;100666.39;;;-5.56;77.63
75852;BME280;64500;52.632;20.656;2023-03-16T02:14:52;100671.95;;;-5.59;77.51
75852;BME280;64500;52.632;20.656;2023-03-16T02:17:27;100672.67;;;-5.62;77.29
75852;BME280;64500;52.632;20.656;2023-03-16T02:22:36;100677.59;;;-5.64;77.59
75852;BME280;64500;52.632;20.656;2023-03-16T02:25:05;100679.78;;;-5.65;77.55
75852;BME280;64500;52.632;20.656;2023-03-16T02:30:31;100680.80;;;-5.69;77.64
75852;BME280;64500;52.632;20.656;2023-03-16T02:32:58;100688.95;;;-5.71;77.66
75852;BME280;64500;52.632;20.656;2023-03-16T02:35:25;100690.95;;;-5.72;77.69
75852;BME280;64500;52.632;20.656;2023-03-16T02:37:51;100692.95;;;-5.74;77.61
75852;BME280;64500;52.632;20.656;2023-03-16T02:40:20;100695.24;;;-5.76;77.55
75852;BME280;64500;52.632;20.656;2023-03-16T02:42:58;100698.40;;;-5.79;77.60
75852;BME280;64500;52.632;20.656;2023-03-16T02:45:53;100695.63;;;-5.76;77.70
75852;BME280;64500;52.632;20.656;2023-03-16T02:48:22;100702.55;;;-5.67;77.94
75852;BME280;64500;52.632;20.656;2023-03-16T02:50:53;100702.94;;;-5.63;77.88
75852;BME280;64500;52.632;20.656;2023-03-16T02:53:20;100704.29;;;-5.60;77.71
75852;BME280;64500;52.632;20.656;2023-03-16T02:55:47;100709.08;;;-5.57;77.59
75852;BME280;64500;52.632;20.656;2023-03-16T02:58:15;100709.72;;;-5.53;77.50
75852;BME280;64500;52.632;20.656;2023-03-16T03:00:42;100713.95;;;-5.51;77.58
75852;BME280;64500;52.632;20.656;2023-03-16T03:03:10;100716.45;;;-5.50;77.50
75852;BME280;64500;52.632;20.656;2023-03-16T03:05:37;100717.45;;;-5.43;77.82
75852;BME280;64500;52.632;20.656;2023-03-16T03:08:05;100719.97;;;-5.36;78.08
75852;BME280;64500;52.632;20.656;2023-03-16T03:10:32;100723.42;;;-5.32;77.94
75852;BME280;64500;52.632;20.656;2023-03-16T03:12:59;100722.50;;;-5.30;77.91
75852;BME280;64500;52.632;20.656;2023-03-16T03:15:26;100724.61;;;-5.29;77.67
75852;BME280;64500;52.632;20.656;2023-03-16T03:17:53;100724.33;;;-5.28;77.88
75852;BME280;64500;52.632;20.656;2023-03-16T03:20:20;100724.63;;;-5.29;77.65
75852;BME280;64500;52.632;20.656;2023-03-16T03:22:50;100725.02;;;-5.31;77.49
75852;BME280;64500;52.632;20.656;2023-03-16T03:25:20;100726.52;;;-5.33;77.43
75852;BME280;64500;52.632;20.656;2023-03-16T03:27:48;100728.02;;;-5.34;77.52
75852;BME280;64500;52.632;20.656;2023-03-16T03:30:19;100728.25;;;-5.36;77.56
75852;BME280;64500;52.632;20.656;2023-03-16T03:32:46;100728.77;;;-5.40;77.49
75852;BME280;64500;52.632;20.656;2023-03-16T03:35:14;100726.70;;;-5.44;77.51
75852;BME280;64500;52.632;20.656;2023-03-16T03:37:42;100728.23;;;-5.44;77.48
75852;BME280;64500;52.632;20.656;2023-03-16T03:40:12;100726.61;;;-5.46;77.63
75852;BME280;64500;52.632;20.656;2023-03-16T03:42:41;100731.48;;;-5.48;77.50
75852;BME280;64500;52.632;20.656;2023-03-16T03:45:09;100736.32;;;-5.52;77.31
75852;BME280;64500;52.632;20.656;2023-03-16T03:47:39;100733.83;;;-5.54;77.45
75852;BME280;64500;52.632;20.656;2023-03-16T03:50:08;100734.84;;;-5.58;77.35
75852;BME280;64500;52.632;20.656;2023-03-16T03:52:35;100733.88;;;-5.61;77.45
75852;BME280;64500;52.632;20.656;2023-03-16T03:55:02;100736.50;;;-5.63;77.49
75852;BME280;64500;52.632;20.656;2023-03-16T03:57:29;100743.98;;;-5.62;77.84
75852;BME280;64500;52.632;20.656;2023-03-16T03:59:55;100741.10;;;-5.64;77.84
75852;BME280;64500;52.632;20.656;2023-03-16T04:02:22;100739.05;;;-5.68;77.77
75852;BME280;64500;52.632;20.656;2023-03-16T04:04:49;100740.06;;;-5.72;77.78
75852;BME280;64500;52.632;20.656;2023-03-16T04:07:17;100745.48;;;-5.77;77.64
75852;BME280;64500;52.632;20.656;2023-03-16T04:09:43;100748.04;;;-5.81;77.64
75852;BME280;64500;52.632;20.656;2023-03-16T04:12:11;100747.49;;;-5.86;77.49
75852;BME280;64500;52.632;20.656;2023-03-16T04:14:38;100751.11;;;-5.89;77.62
75852;BME280;64500;52.632;20.656;2023-03-16T04:17:04;100759.98;;;-5.91;77.93
75852;BME280;64500;52.632;20.656;2023-03-16T04:19:32;100762.71;;;-5.91;78.04
75852;BME280;64500;52.632;20.656;2023-03-16T04:21:58;100763.81;;;-5.94;77.86
75852;BME280;64500;52.632;20.656;2023-03-16T04:24:25;100765.81;;;-5.96;77.93
75852;BME280;64500;52.632;20.656;2023-03-16T04:26:52;100769.44;;;-5.95;77.90
75852;BME280;64500;52.632;20.656;2023-03-16T04:29:20;100771.64;;;-5.96;77.86
75852;BME280;64500;52.632;20.656;2023-03-16T04:31:47;100768.79;;;-5.98;78.00
75852;BME280;64500;52.632;20.656;2023-03-16T04:34:14;100774.34;;;-6.01;78.05
75852;BME280;64500;52.632;20.656;2023-03-16T04:36:41;100777.23;;;-6.02;77.91
75852;BME280;64500;52.632;20.656;2023-03-16T04:39:08;100779.79;;;-6.03;78.02
75852;BME280;64500;52.632;20.656;2023-03-16T04:41:36;100777.98;;;-6.04;78.18
75852;BME280;64500;52.632;20.656;2023-03-16T04:44:03;100778.66;;;-6.04;78.15
75852;BME280;64500;52.632;20.656;2023-03-16T04:46:30;100776.63;;;-6.04;78.28
75852;BME280;64500;52.632;20.656;2023-03-16T04:48:57;100774.90;;;-6.00;78.56
75852;BME280;64500;52.632;20.656;2023-03-16T04:51:26;100778.19;;;-5.96;78.53
75852;BME280;64500;52.632;20.656;2023-03-16T04:53:53;100774.89;;;-5.92;78.53
75852;BME280;64500;52.632;20.656;2023-03-16T04:56:20;100779.71;;;-5.88;78.77
75852;BME280;64500;52.632;20.656;2023-03-16T04:58:49;100785.71;;;-5.86;78.55
75852;BME280;64500;52.632;20.656;2023-03-16T05:01:16;100789.34;;;-5.82;78.83
75852;BME280;64500;52.632;20.656;2023-03-16T05:03:44;100788.44;;;-5.79;78.80
75852;BME280;64500;52.632;20.656;2023-03-16T05:06:11;100790.17;;;-5.75;78.73
75852;BME280;64500;52.632;20.656;2023-03-16T05:08:38;100785.94;;;-5.70;79.09
75852;BME280;64500;52.632;20.656;2023-03-16T05:11:05;100784.80;;;-5.65;79.06
75852;BME280;64500;52.632;20.656;2023-03-16T05:13:33;100790.27;;;-5.59;78.97
75852;BME280;64500;52.632;20.656;2023-03-16T05:16:00;100791.38;;;-5.53;79.20
75852;BME280;64500;52.632;20.656;2023-03-16T05:18:27;100796.80;;;-5.48;78.93
75852;BME280;64500;52.632;20.656;2023-03-16T05:20:55;100796.61;;;-5.41;79.17
75852;BME280;64500;52.632;20.656;2023-03-16T05:23:22;100800.45;;;-5.32;79.42
75852;BME280;64500;52.632;20.656;2023-03-16T05:25:50;100796.61;;;-5.22;79.47
75852;BME280;64500;52.632;20.656;2023-03-16T05:28:17;100798.03;;;-5.10;79.59
75852;BME280;64500;52.632;20.656;2023-03-16T05:30:44;100802.20;;;-5.01;79.73
75852;BME280;64500;52.632;20.656;2023-03-16T05:33:12;100802.74;;;-4.94;79.52
75852;BME280;64500;52.632;20.656;2023-03-16T05:35:39;100805.11;;;-4.87;79.60
75852;BME280;64500;52.632;20.656;2023-03-16T05:38:06;100803.93;;;-4.78;79.58
75852;BME280;64500;52.632;20.656;2023-03-16T05:40:35;100811.55;;;-4.70;79.51
75852;BME280;64500;52.632;20.656;2023-03-16T05:43:03;100814.14;;;-4.62;79.34
75852;BME280;64500;52.632;20.656;2023-03-16T05:45:32;100815.69;;;-4.54;79.52
75852;BME280;64500;52.632;20.656;2023-03-16T05:48:02;100815.84;;;-4.46;79.33
75852;BME280;64500;52.632;20.656;2023-03-16T05:50:34;100813.96;;;-4.38;79.48
75852;BME280;64500;52.632;20.656;2023-03-16T05:53:01;100814.34;;;-4.30;79.59
75852;BME280;64500;52.632;20.656;2023-03-16T05:55:29;100809.33;;;-4.17;79.95
75852;BME280;64500;52.632;20.656;2023-03-16T05:57:57;100815.48;;;-4.02;80.09
75852;BME280;64500;52.632;20.656;2023-03-16T06:00:24;100816.03;;;-3.89;80.44
75852;BME280;64500;52.632;20.656;2023-03-16T06:02:53;100820.73;;;-3.74;80.45
75852;BME280;64500;52.632;20.656;2023-03-16T06:05:21;100822.38;;;-3.64;80.32
75852;BME280;64500;52.632;20.656;2023-03-16T06:07:48;100820.45;;;-3.51;80.46
75852;BME280;64500;52.632;20.656;2023-03-16T06:10:16;100823.21;;;-3.39;80.40
75852;BME280;64500;52.632;20.656;2023-03-16T06:12:43;100826.82;;;-3.25;80.61
75852;BME280;64500;52.632;20.656;2023-03-16T06:15:11;100828.23;;;-3.11;80.66
75852;BME280;64500;52.632;20.656;2023-03-16T06:17:39;100828.20;;;-2.98;80.64
75852;BME280;64500;52.632;20.656;2023-03-16T06:20:09;100830.02;;;-2.86;80.78
75852;BME280;64500;52.632;20.656;2023-03-16T06:22:37;100832.91;;;-2.74;80.73
75852;BME280;64500;52.632;20.656;2023-03-16T06:25:06;100835.20;;;-2.63;80.78
75852;BME280;64500;52.632;20.656;2023-03-16T06:27:34;100840.31;;;-2.51;80.59
75852;BME280;64500;52.632;20.656;2023-03-16T06:30:01;100839.80;;;-2.41;80.71
75852;BME280;64500;52.632;20.656;2023-03-16T06:32:28;100837.84;;;-2.33;80.57
75852;BME280;64500;52.632;20.656;2023-03-16T06:34:55;100841.16;;;-2.22;80.65
75852;BME280;64500;52.632;20.656;2023-03-16T06:37:25;100840.69;;;-2.11;80.53
75852;BME280;64500;52.632;20.656;2023-03-16T06:39:51;100836.71;;;-2.00;80.90
75852;BME280;64500;52.632;20.656;2023-03-16T06:42:19;100838.63;;;-1.90;81.05
75852;BME280;64500;52.632;20.656;2023-03-16T06:44:46;100841.18;;;-1.81;80.90
75852;BME280;64500;52.632;20.656;2023-03-16T06:47:13;100842.33;;;-1.72;80.87
75852;BME280;64500;52.632;20.656;2023-03-16T06:49:40;100845.22;;;-1.63;81.03
75852;BME280;64500;52.632;20.656;2023-03-16T06:52:08;100845.94;;;-1.51;80.92
75852;BME280;64500;52.632;20.656;2023-03-16T06:54:36;100841.70;;;-1.43;81.03
75852;BME280;64500;52.632;20.656;2023-03-16T06:57:03;100841.02;;;-1.36;80.84
75852;BME280;64500;52.632;20.656;2023-03-16T06:59:31;100847.02;;;-1.22;80.60
75852;BME280;64500;52.632;20.656;2023-03-16T07:01:58;100851.71;;;-1.11;80.76
75852;BME280;64500;52.632;20.656;2023-03-16T07:04:25;100851.68;;;-1.00;81.07
75852;BME280;64500;52.632;20.656;2023-03-16T07:06:53;100857.74;;;-0.90;81.05
75852;BME280;64500;52.632;20.656;2023-03-16T07:09:21;100858.84;;;-0.81;81.12
75852;BME280;64500;52.632;20.656;2023-03-16T07:11:49;100864.35;;;-0.72;81.09
75852;BME280;64500;52.632;20.656;2023-03-16T07:14:18;100869.30;;;-0.62;81.19
75852;BME280;64500;52.632;20.656;2023-03-16T07:16:47;100871.98;;;-0.53;81.06
75852;BME280;64500;52.632;20.656;2023-03-16T07:19:16;100874.79;;;-0.46;81.25
75852;BME280;64500;52.632;20.656;2023-03-16T07:21:43;100873.95;;;-0.38;81.27
75852;BME280;64500;52.632;20.656;2023-03-16T07:24:11;100873.61;;;-0.32;81.46
75852;BME280;64500;52.632;20.656;2023-03-16T07:26:40;100876.51;;;-0.22;81.19
75852;BME280;64500;52.632;20.656;2023-03-16T07:29:08;100877.93;;;-0.14;81.23
75852;BME280;64500;52.632;20.656;2023-03-16T07:31:36;100879.34;;;-0.07;81.40
75852;BME280;64500;52.632;20.656;2023-03-16T07:34:06;100876.43;;;0.01;81.47
75852;BME280;64500;52.632;20.656;2023-03-16T07:36:34;100876.11;;;0.09;81.73
75852;BME280;64500;52.632;20.656;2023-03-16T07:39:03;100875.66;;;0.19;81.73
75852;BME280;64500;52.632;20.656;2023-03-16T07:41:31;100876.08;;;0.28;81.79
75852;BME280;64500;52.632;20.656;2023-03-16T07:43:58;100877.69;;;0.36;81.79
75852;BME280;64500;52.632;20.656;2023-03-16T07:46:27;100874.89;;;0.43;81.78
75852;BME280;64500;52.632;20.656;2023-03-16T07:48:55;100883.67;;;0.53;81.72
75852;BME280;64500;52.632;20.656;2023-03-16T07:51:22;100880.20;;;0.61;81.31
75852;BME280;64500;52.632;20.656;2023-03-16T07:53:50;100883.45;;;0.65;80.93
75852;BME280;64500;52.632;20.656;2023-03-16T07:56:21;100880.81;;;0.73;80.86
75852;BME280;64500;52.632;20.656;2023-03-16T07:58:51;100885.22;;;0.82;80.81
75852;BME280;64500;52.632;20.656;2023-03-16T08:01:19;100885.24;;;0.90;80.83
75852;BME280;64500;52.632;20.656;2023-03-16T08:03:48;100885.92;;;0.97;80.46
75852;BME280;64500;52.632;20.656;2023-03-16T08:06:16;100879.28;;;1.04;80.41
75852;BME280;64500;52.632;20.656;2023-03-16T08:08:44;100875.44;;;1.11;80.21
75852;BME280;64500;52.632;20.656;2023-03-16T08:11:14;100880.65;;;1.19;80.33
75852;BME280;64500;52.632;20.656;2023-03-16T08:13:43;100879.05;;;1.25;79.98
75852;BME280;64500;52.632;20.656;2023-03-16T08:16:22;100878.88;;;1.32;79.68
75852;BME280;64500;52.632;20.656;2023-03-16T08:18:49;100878.28;;;1.38;79.55
75852;BME280;64500;52.632;20.656;2023-03-16T08:21:22;100875.77;;;1.43;79.56
75852;BME280;64500;52.632;20.656;2023-03-16T08:23:50;100876.11;;;1.51;79.78
75852;BME280;64500;52.632;20.656;2023-03-16T08:26:19;100877.27;;;1.57;79.50
75852;BME280;64500;52.632;20.656;2023-03-16T08:28:49;100879.52;;;1.65;79.61
75852;BME280;64500;52.632;20.656;2023-03-16T08:31:18;100881.63;;;1.74;79.65
75852;BME280;64500;52.632;20.656;2023-03-16T08:33:47;100879.88;;;1.82;79.45
75852;BME280;64500;52.632;20.656;2023-03-16T08:36:17;100885.48;;;1.93;79.53
75852;BME280;64500;52.632;20.656;2023-03-16T08:38:45;100887.08;;;2.04;79.24
75852;BME280;64500;52.632;20.656;2023-03-16T08:41:14;100879.76;;;2.14;79.39
75852;BME280;64500;52.632;20.656;2023-03-16T08:43:47;100876.75;;;2.31;79.26
75852;BME280;64500;52.632;20.656;2023-03-16T08:46:16;100881.77;;;2.50;79.39
75852;BME280;64500;52.632;20.656;2023-03-16T08:48:47;100882.77;;;2.68;79.15
75852;BME280;64500;52.632;20.656;2023-03-16T08:51:19;100882.32;;;2.83;79.21
75852;BME280;64500;52.632;20.656;2023-03-16T08:53:47;100879.58;;;2.99;79.15
75852;BME280;64500;52.632;20.656;2023-03-16T08:56:15;100883.31;;;3.16;78.94
75852;BME280;64500;52.632;20.656;2023-03-16T08:58:43;100884.25;;;3.33;78.62
75852;BME280;64500;52.632;20.656;2023-03-16T09:01:21;100885.17;;;3.51;78.05
75852;BME280;64500;52.632;20.656;2023-03-16T09:04:07;100887.58;;;3.62;77.06
75852;BME280;64500;52.632;20.656;2023-03-16T09:06:34;100889.29;;;3.73;76.88
75852;BME280;64500;52.632;20.656;2023-03-16T09:09:06;100894.20;;;3.91;77.66
75852;BME280;64500;52.632;20.656;2023-03-16T09:11:35;100899.12;;;4.09;77.10
75852;BME280;64500;52.632;20.656;2023-03-16T09:14:04;100890.20;;;4.25;74.36
75852;BME280;64500;52.632;20.656;2023-03-16T09:16:34;100889.73;;;4.32;73.75
75852;BME280;64500;52.632;20.656;2023-03-16T09:19:03;100890.16;;;4.40;74.19
75852;BME280;64500;52.632;20.656;2023-03-16T09:21:32;100893.48;;;4.38;72.70
75852;BME280;64500;52.632;20.656;2023-03-16T09:24:03;100899.84;;;4.27;72.45
75852;BME280;64500;52.632;20.656;2023-03-16T09:26:30;100896.63;;;4.21;72.28
75852;BME280;64500;52.632;20.656;2023-03-16T09:29:02;100896.90;;;4.13;71.58
75852;BME280;64500;52.632;20.656;2023-03-16T09:31:31;100904.40;;;4.12;72.10
75852;BME280;64500;52.632;20.656;2023-03-16T09:34:00;100903.43;;;4.18;71.45
75852;BME280;64500;52.632;20.656;2023-03-16T09:36:34;100904.55;;;4.27;70.92
75852;BME280;64500;52.632;20.656;2023-03-16T09:39:03;100901.84;;;4.35;70.49
75852;BME280;64500;52.632;20.656;2023-03-16T09:46:58;100906.10;;;4.62;70.49
75852;BME280;64500;52.632;20.656;2023-03-16T09:49:35;100910.18;;;4.68;68.86
75852;BME280;64500;52.632;20.656;2023-03-16T09:55:31;100905.74;;;4.83;68.83
75852;BME280;64500;52.632;20.656;2023-03-16T09:58:00;100910.90;;;4.93;68.13
75852;BME280;64500;52.632;20.656;2023-03-16T10:06:11;100912.20;;;5.02;67.30
75852;BME280;64500;52.632;20.656;2023-03-16T10:08:48;100915.31;;;4.98;67.21
75852;BME280;64500;52.632;20.656;2023-03-16T10:17:18;100910.91;;;5.52;67.74
75852;BME280;64500;52.632;20.656;2023-03-16T10:19:55;100916.01;;;5.94;67.17
75852;BME280;64500;52.632;20.656;2023-03-16T10:22:32;100911.38;;;6.34;67.61
75852;BME280;64500;52.632;20.656;2023-03-16T10:27:55;100914.89;;;7.16;66.38
75852;BME280;64500;52.632;20.656;2023-03-16T10:30:33;100911.81;;;7.50;66.95
75852;BME280;64500;52.632;20.656;2023-03-16T10:33:27;100912.40;;;7.79;64.44
75852;BME280;64500;52.632;20.656;2023-03-16T10:36:24;100920.10;;;7.93;64.71
75852;BME280;64500;52.632;20.656;2023-03-16T10:39:04;100917.81;;;8.25;63.40
75852;BME280;64500;52.632;20.656;2023-03-16T10:41:38;100917.89;;;8.43;63.39
75852;BME280;64500;52.632;20.656;2023-03-16T10:44:13;100912.98;;;8.67;63.44
75852;BME280;64500;52.632;20.656;2023-03-16T10:49:23;100915.70;;;8.56;60.71
75852;BME280;64500;52.632;20.656;2023-03-16T10:51:58;100923.72;;;8.08;58.98
75852;BME280;64500;52.632;20.656;2023-03-16T10:54:39;100925.34;;;7.57;59.28
75852;BME280;64500;52.632;20.656;2023-03-16T10:57:29;100926.81;;;7.31;60.11
75852;BME280;64500;52.632;20.656;2023-03-16T11:02:41;100919.97;;;7.29;61.08
75852;BME280;64500;52.632;20.656;2023-03-16T11:10:39;100920.04;;;7.66;58.59
75852;BME280;64500;52.632;20.656;2023-03-16T11:13:18;100926.98;;;7.88;60.00
75852;BME280;64500;52.632;20.656;2023-03-16T11:18:43;100919.44;;;8.19;57.83
75852;BME280;64500;52.632;20.656;2023-03-16T11:24:04;100925.39;;;8.24;57.74
75852;BME280;64500;52.632;20.656;2023-03-16T11:26:35;100921.22;;;8.13;57.87
75852;BME280;64500;52.632;20.656;2023-03-16T11:32:08;100921.69;;;7.40;56.81
75852;BME280;64500;52.632;20.656;2023-03-16T11:34:39;100924.05;;;7.15;57.20
75852;BME280;64500;52.632;20.656;2023-03-16T11:40:19;100930.39;;;6.91;57.34
75852;BME280;64500;52.632;20.656;2023-03-16T11:50:38;100929.68;;;6.54;59.17
75852;BME280;64500;52.632;20.656;2023-03-16T11:53:31;100925.98;;;6.56;59.50
75852;BME280;64500;52.632;20.656;2023-03-16T12:17:48;100948.45;;;4.79;59.95
75852;BME280;64500;52.632;20.656;2023-03-16T12:20:26;100946.36;;;4.80;59.93
75852;BME280;64500;52.632;20.656;2023-03-16T12:23:08;100940.81;;;4.87;60.26
75852;BME280;64500;52.632;20.656;2023-03-16T12:25:45;100947.23;;;5.01;60.42
75852;BME280;64500;52.632;20.656;2023-03-16T12:28:25;100945.60;;;5.19;60.65
75852;BME280;64500;52.632;20.656;2023-03-16T12:38:52;100941.60;;;6.48;61.45
75852;BME280;64500;52.632;20.656;2023-03-16T12:41:42;100938.12;;;6.93;61.36
75852;BME280;64500;52.632;20.656;2023-03-16T12:49:19;100943.11;;;7.56;58.54
75852;BME280;64500;52.632;20.656;2023-03-16T12:52:00;100940.33;;;7.49;58.39
75852;BME280;64500;52.632;20.656;2023-03-16T12:54:30;100941.72;;;7.50;58.73
75852;BME280;64500;52.632;20.656;2023-03-16T12:57:07;100935.02;;;7.57;58.32
75852;BME280;64500;52.632;20.656;2023-03-16T12:59:45;100939.41;;;7.59;56.89
75852;BME280;64500;52.632;20.656;2023-03-16T13:02:35;100940.65;;;7.56;56.98
75852;BME280;64500;52.632;20.656;2023-03-16T13:05:33;100940.83;;;7.53;55.62
75852;BME280;64500;52.632;20.656;2023-03-16T13:08:14;100940.46;;;7.57;55.91
75852;BME280;64500;52.632;20.656;2023-03-16T13:11:04;100939.40;;;7.62;54.75
75852;BME280;64500;52.632;20.656;2023-03-16T13:13:33;100941.52;;;7.65;55.34
75852;BME280;64500;52.632;20.656;2023-03-16T13:16:07;100946.53;;;7.85;55.99
75852;BME280;64500;52.632;20.656;2023-03-16T13:18:39;100946.08;;;8.09;55.72
75852;BME280;64500;52.632;20.656;2023-03-16T13:21:19;100944.92;;;8.28;55.54
75852;BME280;64500;52.632;20.656;2023-03-16T13:23:52;100941.86;;;8.45;55.22
75852;BME280;64500;52.632;20.656;2023-03-16T13:26:40;100941.07;;;8.56;55.49
75852;BME280;64500;52.632;20.656;2023-03-16T13:31:48;100945.30;;;8.56;54.25
75852;BME280;64500;52.632;20.656;2023-03-16T13:34:29;100949.63;;;8.33;54.25
75852;BME280;64500;52.632;20.656;2023-03-16T13:37:00;100950.81;;;8.12;53.73
75852;BME280;64500;52.632;20.656;2023-03-16T13:39:32;100947.77;;;7.85;53.85
75852;BME280;64500;52.632;20.656;2023-03-16T13:42:15;100948.56;;;7.62;54.26
75852;BME280;64500;52.632;20.656;2023-03-16T13:44:45;100947.91;;;7.34;53.18
75852;BME280;64500;52.632;20.656;2023-03-16T13:47:15;100953.92;;;6.95;53.31
75852;BME280;64500;52.632;20.656;2023-03-16T13:49:48;100957.08;;;6.67;54.05
75852;BME280;64500;52.632;20.656;2023-03-16T13:54:56;100968.61;;;5.89;56.45
75852;BME280;64500;52.632;20.656;2023-03-16T13:57:27;100969.34;;;5.57;57.32
75852;BME280;64500;52.632;20.656;2023-03-16T14:02:43;100973.70;;;5.03;59.37
75852;BME280;64500;52.632;20.656;2023-03-16T14:05:16;100976.56;;;4.90;59.58
75852;BME280;64500;52.632;20.656;2023-03-16T14:07:46;100975.42;;;4.80;59.90
75852;BME280;64500;52.632;20.656;2023-03-16T14:10:15;100981.80;;;4.66;59.83
75852;BME280;64500;52.632;20.656;2023-03-16T14:12:57;100983.98;;;4.57;60.22
75852;BME280;64500;52.632;20.656;2023-03-16T14:15:32;100981.45;;;4.49;60.33
75852;BME280;64500;52.632;20.656;2023-03-16T14:18:15;100984.55;;;4.45;61.18
75852;BME280;64500;52.632;20.656;2023-03-16T14:20:50;100989.02;;;4.38;61.05
75852;BME280;64500;52.632;20.656;2023-03-16T14:23:26;100987.92;;;4.33;61.18
75852;BME280;64500;52.632;20.656;2023-03-16T14:25:56;100982.27;;;4.28;61.59
75852;BME280;64500;52.632;20.656;2023-03-16T14:28:29;100988.73;;;4.27;61.87
75852;BME280;64500;52.632;20.656;2023-03-16T14:31:06;100988.40;;;4.28;61.77
75852;BME280;64500;52.632;20.656;2023-03-16T14:33:37;100992.80;;;4.32;62.13
75852;BME280;64500;52.632;20.656;2023-03-16T14:36:14;100992.70;;;4.37;61.64
75852;BME280;64500;52.632;20.656;2023-03-16T14:38:46;100993.47;;;4.44;61.85
75852;BME280;64500;52.632;20.656;2023-03-16T14:41:23;100990.40;;;4.52;61.78
75852;BME280;64500;52.632;20.656;2023-03-16T14:44:00;100990.81;;;4.58;61.68
75852;BME280;64500;52.632;20.656;2023-03-16T14:46:29;100997.16;;;4.63;61.61
75852;BME280;64500;52.632;20.656;2023-03-16T14:49:05;100999.08;;;4.62;61.74
75852;BME280;64500;52.632;20.656;2023-03-16T14:51:37;100999.61;;;4.61;61.77
75852;BME280;64500;52.632;20.656;2023-03-16T14:54:14;100999.26;;;4.63;61.92
75852;BME280;64500;52.632;20.656;2023-03-16T14:56:48;101002.09;;;4.66;61.66